Главная страница
METAR-TAF:

METAR-TAF

Аэропорты :

Яп

Острова Яп, Микронезия

широта: 09-29N, долгота: 138-05E, высота над уровнем моря: 28 м

Текущие метеонаблюдения

Эта сводка был подготовлена 56 минут назад, в 00:50 UTC
Ветер 5 Узел переменных направлений
Температура 31°C
Влажность 75%
Давление 1012 hPa
Видимость: 19.3 км
Отдельные облака на высоте 1600 фута, мощно-кучевые.
Рассеянная облачность на высоте 30000 фута
ливни в окрестностях

METAR: PTYA 160050Z VRB05KT 12SM VCSH SCT016TCU BKN300 31/26 A2987 RMK VCSH NE TCU W AND NE SLP115 T03100258

Время: 11:46 (01:46 UTC)

Прогноз

Эта сводка был подготовлена 2 часа и 11 минут назад, в 23:35 UTC
Прогноз действительный с 16-го 00 UTC до 16-го 24 UTC
Ветер 5 Узел переменных направлений
Видимость: 10 км
Отдельные облака на высоте 1600 фута
Отдельные облака на высоте 12000 фута
ливни в окрестностях

TAF: PTYA 152335Z 1600/1624 VRB05KT P6SM VCSH SCT016 SCT120

Метеонаблюдения и прогнозы для более 4000 аэропортов (сводки METAR и TAF).

Имеющиеся станции представлены на карте желтыми и красными точками.

Чтобы увидеть название станции, наведите на нее мышь.

Затем щелкните, чтобы увидеть метеонаблюдения и метеопрогнозы.

Управление картой: чтобы увеличить масштаб, щелкните зеленые кнопки с черным крестиком; чтобы уменьшить масштаб, щелкните зеленую кнопку с тире; для просмотра соседних карт щелкайте зеленые стрелки.


METAR-TAF: